sensor_id;sensor_type;location;lat;lon;timestamp;P1;P2;P0
68198;PMS7003;55021;51.554;17.044;2023-04-15T00:05:47;30.50;28.75;19.00
68198;PMS7003;55021;51.554;17.044;2023-04-15T00:20:49;30.25;29.00;17.75
68198;PMS7003;55021;51.554;17.044;2023-04-15T00:35:52;33.25;29.00;18.00
68198;PMS7003;55021;51.554;17.044;2023-04-15T00:50:54;42.00;35.50;19.50
68198;PMS7003;55021;51.554;17.044;2023-04-15T01:05:57;36.50;34.50;21.00
68198;PMS7003;55021;51.554;17.044;2023-04-15T01:21:00;39.00;34.50;21.75
68198;PMS7003;55021;51.554;17.044;2023-04-15T01:36:04;39.00;34.75;21.00
68198;PMS7003;55021;51.554;17.044;2023-04-15T01:51:08;42.00;36.25;20.75
68198;PMS7003;55021;51.554;17.044;2023-04-15T02:06:10;40.00;33.75;19.75
68198;PMS7003;55021;51.554;17.044;2023-04-15T02:21:13;34.50;30.25;20.50
68198;PMS7003;55021;51.554;17.044;2023-04-15T02:36:15;42.75;36.00;22.00
68198;PMS7003;55021;51.554;17.044;2023-04-15T02:51:19;39.25;35.00;23.00
68198;PMS7003;55021;51.554;17.044;2023-04-15T03:06:22;42.75;36.50;22.25
68198;PMS7003;55021;51.554;17.044;2023-04-15T03:21:25;39.75;34.50;20.75
68198;PMS7003;55021;51.554;17.044;2023-04-15T03:36:28;45.00;35.75;23.00
68198;PMS7003;55021;51.554;17.044;2023-04-15T03:51:32;42.25;34.75;22.25
68198;PMS7003;55021;51.554;17.044;2023-04-15T04:06:34;48.50;36.50;23.00
68198;PMS7003;55021;51.554;17.044;2023-04-15T04:21:37;40.00;35.25;23.00
68198;PMS7003;55021;51.554;17.044;2023-04-15T04:36:39;39.00;33.25;21.00
68198;PMS7003;55021;51.554;17.044;2023-04-15T04:51:44;40.00;34.75;21.00
68198;PMS7003;55021;51.554;17.044;2023-04-15T05:06:46;45.25;34.50;21.50
68198;PMS7003;55021;51.554;17.044;2023-04-15T05:21:49;35.00;25.50;16.75
68198;PMS7003;55021;51.554;17.044;2023-04-15T05:36:51;22.75;19.00;11.00
68198;PMS7003;55021;51.554;17.044;2023-04-15T05:51:54;11.50;11.50;5.25
68198;PMS7003;55021;51.554;17.044;2023-04-15T06:06:56;10.25;10.00;5.00
68198;PMS7003;55021;51.554;17.044;2023-04-15T06:22:04;12.50;12.50;7.25
68198;PMS7003;55021;51.554;17.044;2023-04-15T06:37:07;13.00;8.00;3.00
68198;PMS7003;55021;51.554;17.044;2023-04-15T06:52:10;10.00;9.25;3.00
68198;PMS7003;55021;51.554;17.044;2023-04-15T07:07:12;14.00;10.00;5.00
68198;PMS7003;55021;51.554;17.044;2023-04-15T07:22:15;11.00;11.00;4.00
68198;PMS7003;55021;51.554;17.044;2023-04-15T07:37:17;8.50;8.50;3.50
68198;PMS7003;55021;51.554;17.044;2023-04-15T07:52:20;8.50;6.50;2.00
68198;PMS7003;55021;51.554;17.044;2023-04-15T08:07:22;6.00;6.00;2.00
68198;PMS7003;55021;51.554;17.044;2023-04-15T08:22:25;8.75;8.50;3.00
68198;PMS7003;55021;51.554;17.044;2023-04-15T08:37:28;8.75;8.00;4.25
68198;PMS7003;55021;51.554;17.044;2023-04-15T08:52:30;8.00;8.00;4.00
68198;PMS7003;55021;51.554;17.044;2023-04-15T09:07:33;7.25;6.50;2.75
68198;PMS7003;55021;51.554;17.044;2023-04-15T09:22:36;9.00;8.75;4.25
68198;PMS7003;55021;51.554;17.044;2023-04-15T09:37:39;5.75;5.75;2.75
68198;PMS7003;55021;51.554;17.044;2023-04-15T09:52:42;12.00;11.00;5.25
68198;PMS7003;55021;51.554;17.044;2023-04-15T10:07:45;13.00;13.00;7.00
68198;PMS7003;55021;51.554;17.044;2023-04-15T10:22:48;11.00;11.00;4.25
68198;PMS7003;55021;51.554;17.044;2023-04-15T10:37:52;7.00;7.00;3.00
68198;PMS7003;55021;51.554;17.044;2023-04-15T10:52:54;12.50;11.25;5.00
68198;PMS7003;55021;51.554;17.044;2023-04-15T11:07:58;16.00;11.00;6.00
68198;PMS7003;55021;51.554;17.044;2023-04-15T11:23:00;11.00;10.00;5.00
68198;PMS7003;55021;51.554;17.044;2023-04-15T11:38:03;8.25;8.25;4.00
68198;PMS7003;55021;51.554;17.044;2023-04-15T11:53:06;7.75;7.75;4.00
68198;PMS7003;55021;51.554;17.044;2023-04-15T12:08:10;6.75;6.00;3.00
68198;PMS7003;55021;51.554;17.044;2023-04-15T12:23:12;6.25;6.25;2.75
68198;PMS7003;55021;51.554;17.044;2023-04-15T12:38:20;5.25;5.25;2.00
68198;PMS7003;55021;51.554;17.044;2023-04-15T12:53:22;6.75;5.00;2.00
68198;PMS7003;55021;51.554;17.044;2023-04-15T13:08:24;7.25;7.00;4.00
68198;PMS7003;55021;51.554;17.044;2023-04-15T13:23:27;10.75;9.25;4.00
68198;PMS7003;55021;51.554;17.044;2023-04-15T13:38:29;23.25;22.25;14.50
68198;PMS7003;55021;51.554;17.044;2023-04-15T13:53:32;8.50;6.50;3.00
68198;PMS7003;55021;51.554;17.044;2023-04-15T14:08:35;4.00;4.00;1.00
68198;PMS7003;55021;51.554;17.044;2023-04-15T14:23:37;4.25;4.00;1.00
68198;PMS7003;55021;51.554;17.044;2023-04-15T14:38:40;17.50;16.75;10.75
68198;PMS7003;55021;51.554;17.044;2023-04-15T14:53:42;23.75;20.00;11.75
68198;PMS7003;55021;51.554;17.044;2023-04-15T15:08:46;18.00;18.00;10.75
68198;PMS7003;55021;51.554;17.044;2023-04-15T15:23:49;29.25;26.50;16.00
68198;PMS7003;55021;51.554;17.044;2023-04-15T15:38:51;21.25;16.50;8.00
68198;PMS7003;55021;51.554;17.044;2023-04-15T15:53:54;27.25;23.75;13.00
68198;PMS7003;55021;51.554;17.044;2023-04-15T16:08:56;25.00;21.00;12.25
68198;PMS7003;55021;51.554;17.044;2023-04-15T16:23:59;30.50;23.25;13.50
68198;PMS7003;55021;51.554;17.044;2023-04-15T16:39:02;28.50;24.75;14.25
68198;PMS7003;55021;51.554;17.044;2023-04-15T16:54:05;31.25;26.75;15.00
68198;PMS7003;55021;51.554;17.044;2023-04-15T17:09:09;32.75;30.00;16.75
68198;PMS7003;55021;51.554;17.044;2023-04-15T17:24:11;39.25;33.00;21.25
68198;PMS7003;55021;51.554;17.044;2023-04-15T17:39:14;31.75;28.00;17.50
68198;PMS7003;55021;51.554;17.044;2023-04-15T17:54:16;33.25;30.00;15.75
68198;PMS7003;55021;51.554;17.044;2023-04-15T18:09:18;32.25;30.50;17.50
68198;PMS7003;55021;51.554;17.044;2023-04-15T18:24:21;45.75;34.75;20.25
68198;PMS7003;55021;51.554;17.044;2023-04-15T19:38:18;44.75;35.00;22.75
68198;PMS7003;55021;51.554;17.044;2023-04-15T19:53:21;41.00;31.50;20.00
68198;PMS7003;55021;51.554;17.044;2023-04-15T20:08:23;31.50;27.75;16.75
68198;PMS7003;55021;51.554;17.044;2023-04-15T20:23:26;33.50;32.00;18.00
68198;PMS7003;55021;51.554;17.044;2023-04-15T20:38:28;35.75;30.00;17.75
68198;PMS7003;55021;51.554;17.044;2023-04-15T20:53:31;39.25;33.25;20.25
68198;PMS7003;55021;51.554;17.044;2023-04-15T21:08:34;39.25;34.00;20.25
68198;PMS7003;55021;51.554;17.044;2023-04-15T21:23:37;50.75;38.50;23.00
68198;PMS7003;55021;51.554;17.044;2023-04-15T21:38:39;48.25;37.75;23.00
68198;PMS7003;55021;51.554;17.044;2023-04-15T21:53:42;30.00;26.50;15.75
68198;PMS7003;55021;51.554;17.044;2023-04-15T22:08:44;34.50;31.00;18.75
68198;PMS7003;55021;51.554;17.044;2023-04-15T22:23:47;44.25;39.00;25.25
68198;PMS7003;55021;51.554;17.044;2023-04-15T22:38:50;55.00;40.25;22.50
68198;PMS7003;55021;51.554;17.044;2023-04-15T22:53:53;30.50;27.00;16.50
68198;PMS7003;55021;51.554;17.044;2023-04-15T23:08:56;42.25;35.25;19.00
68198;PMS7003;55021;51.554;17.044;2023-04-15T23:23:59;24.25;21.00;12.00
68198;PMS7003;55021;51.554;17.044;2023-04-15T23:39:01;42.75;36.00;22.25
68198;PMS7003;55021;51.554;17.044;2023-04-15T23:54:04;35.25;32.75;20.25
